sensor_id;sensor_type;location;lat;lon;timestamp;temperature;humidity
13470;DHT22;6807;48.682;9.032;2023-03-14T12:08:33;9.40;42.50
13470;DHT22;6807;48.682;9.032;2023-03-14T12:21:05;10.70;99.90
13470;DHT22;6807;48.682;9.032;2023-03-14T12:23:36;10.00;99.90
13470;DHT22;6807;48.682;9.032;2023-03-14T12:26:12;9.70;99.40
13470;DHT22;6807;48.682;9.032;2023-03-14T12:28:42;10.70;99.90
13470;DHT22;6807;48.682;9.032;2023-03-14T12:31:36;12.10;99.90
13470;DHT22;6807;48.682;9.032;2023-03-14T12:34:26;11.70;99.90
13470;DHT22;6807;48.682;9.032;2023-03-14T12:37:05;11.50;99.90
13470;DHT22;6807;48.682;9.032;2023-03-14T12:39:43;12.20;63.10
13470;DHT22;6807;48.682;9.032;2023-03-14T12:42:17;12.40;97.70
13470;DHT22;6807;48.682;9.032;2023-03-14T12:44:47;12.90;99.90
13470;DHT22;6807;48.682;9.032;2023-03-14T12:47:44;12.30;99.90
13470;DHT22;6807;48.682;9.032;2023-03-14T12:50:20;13.10;99.90
13470;DHT22;6807;48.682;9.032;2023-03-14T12:55:58;13.10;79.70
13470;DHT22;6807;48.682;9.032;2023-03-14T12:58:31;13.20;46.60
13470;DHT22;6807;48.682;9.032;2023-03-14T13:01:07;12.30;19.50
13470;DHT22;6807;48.682;9.032;2023-03-14T13:03:45;10.70;1.00
13470;DHT22;6807;48.682;9.032;2023-03-14T13:06:48;10.50;1.00
13470;DHT22;6807;48.682;9.032;2023-03-14T13:12:27;11.30;1.10
13470;DHT22;6807;48.682;9.032;2023-03-14T13:14:59;12.00;99.90
13470;DHT22;6807;48.682;9.032;2023-03-14T13:17:30;11.70;88.70
13470;DHT22;6807;48.682;9.032;2023-03-14T13:20:03;9.80;67.70
13470;DHT22;6807;48.682;9.032;2023-03-14T13:22:34;9.40;28.00
13470;DHT22;6807;48.682;9.032;2023-03-14T13:25:06;9.10;28.70
13470;DHT22;6807;48.682;9.032;2023-03-14T13:27:34;8.40;28.20
13470;DHT22;6807;48.682;9.032;2023-03-14T13:30:22;9.40;44.50
13470;DHT22;6807;48.682;9.032;2023-03-14T15:13:08;10.40;1.00
13470;DHT22;6807;48.682;9.032;2023-03-14T15:15:36;10.40;1.00
13470;DHT22;6807;48.682;9.032;2023-03-14T15:18:13;10.60;1.00
13470;DHT22;6807;48.682;9.032;2023-03-14T15:20:41;11.30;1.90
13470;DHT22;6807;48.682;9.032;2023-03-14T15:23:12;10.20;1.00
13470;DHT22;6807;48.682;9.032;2023-03-14T15:25:40;9.30;1.00
13470;DHT22;6807;48.682;9.032;2023-03-14T15:28:18;8.60;1.00
13470;DHT22;6807;48.682;9.032;2023-03-14T15:30:48;8.10;1.00
13470;DHT22;6807;48.682;9.032;2023-03-14T15:33:16;8.00;1.00
13470;DHT22;6807;48.682;9.032;2023-03-14T15:35:43;7.90;1.00
13470;DHT22;6807;48.682;9.032;2023-03-14T15:38:12;7.80;1.00
13470;DHT22;6807;48.682;9.032;2023-03-14T15:40:39;7.90;1.00
13470;DHT22;6807;48.682;9.032;2023-03-14T15:43:07;8.10;1.00
13470;DHT22;6807;48.682;9.032;2023-03-14T15:45:34;8.00;1.00
13470;DHT22;6807;48.682;9.032;2023-03-14T15:48:03;8.00;1.00
13470;DHT22;6807;48.682;9.032;2023-03-14T15:50:30;7.90;1.00
13470;DHT22;6807;48.682;9.032;2023-03-14T15:52:57;7.90;1.00
13470;DHT22;6807;48.682;9.032;2023-03-14T15:55:24;8.30;1.00
13470;DHT22;6807;48.682;9.032;2023-03-14T15:57:51;7.90;1.00
13470;DHT22;6807;48.682;9.032;2023-03-14T16:00:19;8.60;1.00
13470;DHT22;6807;48.682;9.032;2023-03-14T16:02:48;8.30;1.00
13470;DHT22;6807;48.682;9.032;2023-03-14T16:05:16;8.30;1.00
13470;DHT22;6807;48.682;9.032;2023-03-14T16:07:45;8.60;1.00
13470;DHT22;6807;48.682;9.032;2023-03-14T16:10:13;8.50;1.00
13470;DHT22;6807;48.682;9.032;2023-03-14T16:12:41;8.10;1.00
13470;DHT22;6807;48.682;9.032;2023-03-14T16:15:09;8.50;1.00
13470;DHT22;6807;48.682;9.032;2023-03-14T16:17:36;8.70;1.00
13470;DHT22;6807;48.682;9.032;2023-03-14T16:20:06;8.70;1.00
13470;DHT22;6807;48.682;9.032;2023-03-14T16:22:35;8.30;1.00
13470;DHT22;6807;48.682;9.032;2023-03-14T16:25:04;8.40;1.00
13470;DHT22;6807;48.682;9.032;2023-03-14T16:27:31;8.40;1.00
13470;DHT22;6807;48.682;9.032;2023-03-14T16:29:58;8.00;1.00
13470;DHT22;6807;48.682;9.032;2023-03-14T16:32:26;7.60;1.00
13470;DHT22;6807;48.682;9.032;2023-03-14T16:34:53;7.40;1.00
13470;DHT22;6807;48.682;9.032;2023-03-14T16:37:20;7.30;1.00
13470;DHT22;6807;48.682;9.032;2023-03-14T16:39:50;7.30;1.00
13470;DHT22;6807;48.682;9.032;2023-03-14T16:42:16;7.30;1.00
13470;DHT22;6807;48.682;9.032;2023-03-14T16:44:44;7.20;1.00
13470;DHT22;6807;48.682;9.032;2023-03-14T16:47:11;7.20;1.00
13470;DHT22;6807;48.682;9.032;2023-03-14T16:49:38;7.10;1.00
13470;DHT22;6807;48.682;9.032;2023-03-14T16:52:06;7.30;1.00
13470;DHT22;6807;48.682;9.032;2023-03-14T16:54:33;7.10;1.00
13470;DHT22;6807;48.682;9.032;2023-03-14T16:57:01;7.20;1.00
13470;DHT22;6807;48.682;9.032;2023-03-14T16:59:28;7.00;1.00
13470;DHT22;6807;48.682;9.032;2023-03-14T17:01:55;6.90;1.00
13470;DHT22;6807;48.682;9.032;2023-03-14T17:04:23;7.20;1.00
13470;DHT22;6807;48.682;9.032;2023-03-14T17:06:50;6.80;1.00
13470;DHT22;6807;48.682;9.032;2023-03-14T17:09:17;7.60;1.00
13470;DHT22;6807;48.682;9.032;2023-03-14T17:11:45;6.70;1.00
13470;DHT22;6807;48.682;9.032;2023-03-14T17:14:14;6.40;31.90
13470;DHT22;6807;48.682;9.032;2023-03-14T17:16:41;6.10;99.90
13470;DHT22;6807;48.682;9.032;2023-03-14T17:19:08;6.20;92.80
13470;DHT22;6807;48.682;9.032;2023-03-14T17:21:34;6.00;85.80
13470;DHT22;6807;48.682;9.032;2023-03-14T17:24:01;6.30;84.90
13470;DHT22;6807;48.682;9.032;2023-03-14T17:26:28;5.80;75.80
13470;DHT22;6807;48.682;9.032;2023-03-14T17:28:55;6.40;88.20
13470;DHT22;6807;48.682;9.032;2023-03-14T17:31:23;5.70;80.90
13470;DHT22;6807;48.682;9.032;2023-03-14T17:33:51;5.70;53.40
13470;DHT22;6807;48.682;9.032;2023-03-14T17:36:20;5.70;55.90
13470;DHT22;6807;48.682;9.032;2023-03-14T17:38:51;5.60;60.80
13470;DHT22;6807;48.682;9.032;2023-03-14T17:41:18;5.60;54.20
13470;DHT22;6807;48.682;9.032;2023-03-14T17:43:45;5.60;69.40
13470;DHT22;6807;48.682;9.032;2023-03-14T17:46:13;5.70;79.20
13470;DHT22;6807;48.682;9.032;2023-03-14T17:48:47;5.50;83.10
13470;DHT22;6807;48.682;9.032;2023-03-14T17:51:15;5.40;80.40
13470;DHT22;6807;48.682;9.032;2023-03-14T17:53:43;5.40;93.10
13470;DHT22;6807;48.682;9.032;2023-03-14T17:56:10;5.30;98.70
13470;DHT22;6807;48.682;9.032;2023-03-14T17:58:37;5.20;92.00
13470;DHT22;6807;48.682;9.032;2023-03-14T18:01:09;5.20;99.90
13470;DHT22;6807;48.682;9.032;2023-03-14T18:03:36;5.20;99.90
13470;DHT22;6807;48.682;9.032;2023-03-14T18:06:06;5.10;99.90
13470;DHT22;6807;48.682;9.032;2023-03-14T18:08:33;5.10;99.90
13470;DHT22;6807;48.682;9.032;2023-03-14T18:11:01;5.10;99.90
13470;DHT22;6807;48.682;9.032;2023-03-14T18:13:29;5.00;99.90
13470;DHT22;6807;48.682;9.032;2023-03-14T18:15:56;4.20;99.90
13470;DHT22;6807;48.682;9.032;2023-03-14T18:18:24;5.50;99.90
13470;DHT22;6807;48.682;9.032;2023-03-14T18:20:51;3.70;99.90
13470;DHT22;6807;48.682;9.032;2023-03-14T18:23:20;3.70;99.90
13470;DHT22;6807;48.682;9.032;2023-03-14T18:25:48;3.60;1.00
13470;DHT22;6807;48.682;9.032;2023-03-14T18:28:15;3.60;1.00
13470;DHT22;6807;48.682;9.032;2023-03-14T18:30:43;3.60;1.00
13470;DHT22;6807;48.682;9.032;2023-03-14T18:33:17;3.60;1.00
13470;DHT22;6807;48.682;9.032;2023-03-14T18:35:45;3.60;1.00
13470;DHT22;6807;48.682;9.032;2023-03-14T18:38:12;3.50;1.00
13470;DHT22;6807;48.682;9.032;2023-03-14T18:40:40;3.50;1.00
13470;DHT22;6807;48.682;9.032;2023-03-14T18:43:07;3.50;1.00
13470;DHT22;6807;48.682;9.032;2023-03-14T18:45:34;3.50;1.00
13470;DHT22;6807;48.682;9.032;2023-03-14T18:48:00;3.50;99.90
13470;DHT22;6807;48.682;9.032;2023-03-14T18:50:27;3.50;99.90
13470;DHT22;6807;48.682;9.032;2023-03-14T18:53:31;3.60;99.90
13470;DHT22;6807;48.682;9.032;2023-03-14T18:56:08;3.60;99.90
13470;DHT22;6807;48.682;9.032;2023-03-14T18:58:36;2.60;99.90
13470;DHT22;6807;48.682;9.032;2023-03-14T19:01:03;3.60;99.90
13470;DHT22;6807;48.682;9.032;2023-03-14T19:03:33;3.60;99.90
13470;DHT22;6807;48.682;9.032;2023-03-14T19:06:04;4.10;99.90
13470;DHT22;6807;48.682;9.032;2023-03-14T19:08:31;3.70;99.90
13470;DHT22;6807;48.682;9.032;2023-03-14T19:11:02;3.70;99.90
13470;DHT22;6807;48.682;9.032;2023-03-14T19:13:31;3.70;99.90
13470;DHT22;6807;48.682;9.032;2023-03-14T19:15:59;3.70;99.90
13470;DHT22;6807;48.682;9.032;2023-03-14T19:18:26;3.70;99.90
13470;DHT22;6807;48.682;9.032;2023-03-14T19:20:58;3.80;99.90
13470;DHT22;6807;48.682;9.032;2023-03-14T19:23:26;4.00;99.90
13470;DHT22;6807;48.682;9.032;2023-03-14T19:25:57;4.10;99.90
13470;DHT22;6807;48.682;9.032;2023-03-14T19:28:24;4.20;99.90
13470;DHT22;6807;48.682;9.032;2023-03-14T19:30:52;4.20;99.90
13470;DHT22;6807;48.682;9.032;2023-03-14T19:33:19;4.40;99.90
13470;DHT22;6807;48.682;9.032;2023-03-14T19:35:47;4.20;99.90
13470;DHT22;6807;48.682;9.032;2023-03-14T19:38:14;4.20;99.90
13470;DHT22;6807;48.682;9.032;2023-03-14T19:40:42;4.20;99.90
13470;DHT22;6807;48.682;9.032;2023-03-14T19:43:10;4.20;99.90
13470;DHT22;6807;48.682;9.032;2023-03-14T19:45:37;4.10;99.90
13470;DHT22;6807;48.682;9.032;2023-03-14T19:48:06;4.20;99.90
13470;DHT22;6807;48.682;9.032;2023-03-14T19:50:33;4.20;99.90
13470;DHT22;6807;48.682;9.032;2023-03-14T19:53:01;4.10;99.90
13470;DHT22;6807;48.682;9.032;2023-03-14T19:55:33;4.10;99.90
13470;DHT22;6807;48.682;9.032;2023-03-14T19:58:02;4.00;99.90
13470;DHT22;6807;48.682;9.032;2023-03-14T20:00:29;3.90;99.90
13470;DHT22;6807;48.682;9.032;2023-03-14T20:02:56;3.90;99.90
13470;DHT22;6807;48.682;9.032;2023-03-14T20:05:25;3.90;99.90
13470;DHT22;6807;48.682;9.032;2023-03-14T20:07:51;3.80;99.90
13470;DHT22;6807;48.682;9.032;2023-03-14T20:10:20;3.70;99.90
13470;DHT22;6807;48.682;9.032;2023-03-14T20:12:48;4.00;99.90
13470;DHT22;6807;48.682;9.032;2023-03-14T20:15:17;3.70;99.90
13470;DHT22;6807;48.682;9.032;2023-03-14T20:17:47;3.70;99.90
13470;DHT22;6807;48.682;9.032;2023-03-14T20:20:15;3.70;99.90
13470;DHT22;6807;48.682;9.032;2023-03-14T20:22:43;3.70;99.90
13470;DHT22;6807;48.682;9.032;2023-03-14T20:25:12;3.80;99.90
13470;DHT22;6807;48.682;9.032;2023-03-14T20:27:44;3.80;99.90
13470;DHT22;6807;48.682;9.032;2023-03-14T20:30:13;3.80;99.90
13470;DHT22;6807;48.682;9.032;2023-03-14T20:32:42;3.80;99.90
13470;DHT22;6807;48.682;9.032;2023-03-14T20:35:10;3.80;99.90
13470;DHT22;6807;48.682;9.032;2023-03-14T20:37:37;3.90;99.90
13470;DHT22;6807;48.682;9.032;2023-03-14T20:40:11;3.90;99.90
13470;DHT22;6807;48.682;9.032;2023-03-14T20:42:43;4.00;99.90
13470;DHT22;6807;48.682;9.032;2023-03-14T20:45:10;4.00;99.90
13470;DHT22;6807;48.682;9.032;2023-03-14T20:47:37;4.00;99.90
13470;DHT22;6807;48.682;9.032;2023-03-14T20:50:06;4.00;99.90
13470;DHT22;6807;48.682;9.032;2023-03-14T20:52:35;3.90;99.90
13470;DHT22;6807;48.682;9.032;2023-03-14T20:55:04;3.90;99.90
13470;DHT22;6807;48.682;9.032;2023-03-14T20:57:37;3.90;99.90
13470;DHT22;6807;48.682;9.032;2023-03-14T21:00:05;3.80;99.90
13470;DHT22;6807;48.682;9.032;2023-03-14T21:02:32;3.80;99.90
13470;DHT22;6807;48.682;9.032;2023-03-14T21:05:01;3.90;99.90
13470;DHT22;6807;48.682;9.032;2023-03-14T21:07:30;3.80;99.90
13470;DHT22;6807;48.682;9.032;2023-03-14T21:10:01;3.70;99.90
13470;DHT22;6807;48.682;9.032;2023-03-14T21:12:29;3.70;99.90
13470;DHT22;6807;48.682;9.032;2023-03-14T21:15:01;3.60;99.90
13470;DHT22;6807;48.682;9.032;2023-03-14T21:17:29;3.60;99.90
13470;DHT22;6807;48.682;9.032;2023-03-14T21:20:01;3.60;99.90
13470;DHT22;6807;48.682;9.032;2023-03-14T21:22:30;3.50;99.90
13470;DHT22;6807;48.682;9.032;2023-03-14T21:24:57;3.50;99.90
13470;DHT22;6807;48.682;9.032;2023-03-14T21:27:24;3.50;99.90
13470;DHT22;6807;48.682;9.032;2023-03-14T21:29:51;3.40;99.90
13470;DHT22;6807;48.682;9.032;2023-03-14T21:32:19;3.40;99.90
13470;DHT22;6807;48.682;9.032;2023-03-14T21:34:46;3.40;99.90
13470;DHT22;6807;48.682;9.032;2023-03-14T21:37:14;3.40;99.90
13470;DHT22;6807;48.682;9.032;2023-03-14T21:39:41;3.40;1.00
13470;DHT22;6807;48.682;9.032;2023-03-14T21:42:08;3.40;99.90
13470;DHT22;6807;48.682;9.032;2023-03-14T21:44:35;3.40;99.90
13470;DHT22;6807;48.682;9.032;2023-03-14T21:47:06;3.40;99.90
13470;DHT22;6807;48.682;9.032;2023-03-14T21:49:36;3.40;99.90
13470;DHT22;6807;48.682;9.032;2023-03-14T21:52:04;3.40;99.90
13470;DHT22;6807;48.682;9.032;2023-03-14T21:54:32;2.00;99.90
13470;DHT22;6807;48.682;9.032;2023-03-14T21:57:00;3.40;99.90
13470;DHT22;6807;48.682;9.032;2023-03-14T21:59:27;3.40;99.90
13470;DHT22;6807;48.682;9.032;2023-03-14T22:02:07;3.40;99.90
13470;DHT22;6807;48.682;9.032;2023-03-14T22:04:41;3.40;1.00
13470;DHT22;6807;48.682;9.032;2023-03-14T22:07:10;3.40;99.90
13470;DHT22;6807;48.682;9.032;2023-03-14T22:09:41;3.40;99.90
13470;DHT22;6807;48.682;9.032;2023-03-14T22:12:08;3.40;1.00
13470;DHT22;6807;48.682;9.032;2023-03-14T22:14:38;3.40;99.90
13470;DHT22;6807;48.682;9.032;2023-03-14T22:17:08;3.50;99.90
13470;DHT22;6807;48.682;9.032;2023-03-14T22:19:54;3.50;99.90
13470;DHT22;6807;48.682;9.032;2023-03-14T22:22:21;4.50;99.90
13470;DHT22;6807;48.682;9.032;2023-03-14T22:24:48;3.50;99.90
13470;DHT22;6807;48.682;9.032;2023-03-14T22:27:15;3.50;99.90
13470;DHT22;6807;48.682;9.032;2023-03-14T22:29:42;3.50;1.00
13470;DHT22;6807;48.682;9.032;2023-03-14T22:32:10;3.50;1.00
13470;DHT22;6807;48.682;9.032;2023-03-14T22:37:58;3.40;1.00
13470;DHT22;6807;48.682;9.032;2023-03-14T22:40:25;2.60;1.00
13470;DHT22;6807;48.682;9.032;2023-03-14T22:42:53;2.20;1.00
13470;DHT22;6807;48.682;9.032;2023-03-14T22:45:20;2.00;1.00
13470;DHT22;6807;48.682;9.032;2023-03-14T22:47:47;1.70;1.00
13470;DHT22;6807;48.682;9.032;2023-03-14T22:50:14;1.40;1.00
13470;DHT22;6807;48.682;9.032;2023-03-14T22:52:41;1.30;1.00
13470;DHT22;6807;48.682;9.032;2023-03-14T22:55:09;1.20;1.00
13470;DHT22;6807;48.682;9.032;2023-03-14T22:57:36;1.10;1.00
13470;DHT22;6807;48.682;9.032;2023-03-14T23:00:05;1.00;1.00
13470;DHT22;6807;48.682;9.032;2023-03-14T23:02:37;1.10;1.00
13470;DHT22;6807;48.682;9.032;2023-03-14T23:05:04;2.60;1.00
13470;DHT22;6807;48.682;9.032;2023-03-14T23:07:31;1.00;1.00
13470;DHT22;6807;48.682;9.032;2023-03-14T23:09:58;1.00;1.00
13470;DHT22;6807;48.682;9.032;2023-03-14T23:12:26;1.00;1.00
13470;DHT22;6807;48.682;9.032;2023-03-14T23:14:53;1.50;1.00
13470;DHT22;6807;48.682;9.032;2023-03-14T23:17:20;1.00;1.00
13470;DHT22;6807;48.682;9.032;2023-03-14T23:19:50;1.00;1.00
13470;DHT22;6807;48.682;9.032;2023-03-14T23:22:18;1.00;1.00
13470;DHT22;6807;48.682;9.032;2023-03-14T23:24:44;1.10;1.00
13470;DHT22;6807;48.682;9.032;2023-03-14T23:27:13;1.00;1.00
13470;DHT22;6807;48.682;9.032;2023-03-14T23:29:44;0.90;1.00
13470;DHT22;6807;48.682;9.032;2023-03-14T23:32:11;0.90;1.00
13470;DHT22;6807;48.682;9.032;2023-03-14T23:34:39;1.00;1.00
13470;DHT22;6807;48.682;9.032;2023-03-14T23:37:07;0.90;1.00
13470;DHT22;6807;48.682;9.032;2023-03-14T23:39:38;1.00;1.00
13470;DHT22;6807;48.682;9.032;2023-03-14T23:42:05;1.20;1.00
13470;DHT22;6807;48.682;9.032;2023-03-14T23:44:32;0.90;1.00
13470;DHT22;6807;48.682;9.032;2023-03-14T23:47:00;0.90;1.00
13470;DHT22;6807;48.682;9.032;2023-03-14T23:49:28;0.90;1.00
13470;DHT22;6807;48.682;9.032;2023-03-14T23:51:55;0.90;1.00
13470;DHT22;6807;48.682;9.032;2023-03-14T23:54:22;0.90;1.00
13470;DHT22;6807;48.682;9.032;2023-03-14T23:56:49;1.50;1.00
13470;DHT22;6807;48.682;9.032;2023-03-14T23:59:16;1.10;1.00
